Time;durP1;ratioP1;P1;durP2;ratioP2;P2;SDS_P1;SDS_P2;PMS_P1;PMS_P2;Temp;Humidity;BMP_temperature;BMP_pressure;BME280_temperature;BME280_humidity;BME280_pressure;Samples;Min_cycle;Max_cycle;Signal;HPM_P1;HPM_P2
2023/03/01 00:01:22;;;;;;;0.70;0.30;;;7.70;99.90;;;;;;5011820;28;20178;-58
2023/03/01 00:03:49;;;;;;;1.63;0.60;;;7.20;99.90;;;;;;5029660;28;20162;-58
2023/03/01 00:06:15;;;;;;;2.40;0.50;;;7.40;99.90;;;;;;5028971;28;20225;-58
2023/03/01 00:08:40;;;;;;;0.70;0.40;;;7.80;99.90;;;;;;5028895;28;20897;-58
2023/03/01 00:11:22;;;;;;;1.73;0.50;;;7.30;99.90;;;;;;5028791;28;20176;-60
2023/03/01 00:13:50;;;;;;;0.57;0.50;;;7.20;99.90;;;;;;5028374;28;20193;-60
2023/03/01 00:16:28;;;;;;;1.27;0.50;;;7.20;99.90;;;;;;5029480;28;20178;-57
2023/03/01 00:18:55;;;;;;;2.03;0.40;;;7.80;99.90;;;;;;5028524;28;20759;-58
2023/03/01 00:21:22;;;;;;;0.50;0.47;;;7.30;99.90;;;;;;5029158;28;20181;-60
2023/03/01 00:23:48;;;;;;;0.67;0.40;;;7.40;99.90;;;;;;5028391;28;20182;-57
2023/03/01 00:26:15;;;;;;;0.33;0.33;;;7.20;99.90;;;;;;5028899;28;20759;-60
2023/03/01 00:28:41;;;;;;;0.60;0.40;;;7.10;99.90;;;;;;5028624;28;20261;-60
2023/03/01 00:31:13;;;;;;;2.07;0.47;;;7.20;99.90;;;;;;5029521;28;20296;-58
2023/03/01 00:33:39;;;;;;;0.50;0.33;;;7.00;99.90;;;;;;5028933;28;20214;-58
2023/03/01 00:36:06;;;;;;;2.00;0.67;;;7.00;99.90;;;;;;5028351;28;20272;-58
2023/03/01 00:38:38;;;;;;;0.20;0.10;;;7.10;99.90;;;;;;5029124;28;20185;-58
2023/03/01 00:41:11;;;;;;;1.63;0.40;;;7.00;99.90;;;;;;5028534;28;20631;-58
2023/03/01 00:43:37;;;;;;;1.47;0.30;;;7.00;99.90;;;;;;5029292;28;20181;-58
2023/03/01 00:46:05;;;;;;;0.73;0.50;;;7.10;99.90;;;;;;5027875;28;20313;-58
2023/03/01 00:48:31;;;;;;;1.53;0.33;;;7.10;99.90;;;;;;5025817;28;20198;-58
2023/03/01 00:50:57;;;;;;;1.13;0.40;;;7.00;99.90;;;;;;5021980;28;20240;-58
2023/03/01 00:53:22;;;;;;;0.57;0.33;;;7.00;99.90;;;;;;5028892;28;20579;-58
2023/03/01 00:55:48;;;;;;;1.70;0.20;;;7.10;99.90;;;;;;5028381;28;20241;-58
2023/03/01 00:58:13;;;;;;;0.80;0.33;;;7.10;99.90;;;;;;5029025;28;20510;-58
2023/03/01 01:00:39;;;;;;;2.80;0.40;;;6.90;99.90;;;;;;5029573;28;20173;-58
2023/03/01 01:03:05;;;;;;;2.37;0.50;;;7.10;99.90;;;;;;5028912;28;20295;-58
2023/03/01 01:05:30;;;;;;;2.40;0.50;;;7.00;99.90;;;;;;5028372;28;20263;-58
2023/03/01 01:07:56;;;;;;;1.07;0.57;;;;;;;;;;5028077;28;20540;-58
2023/03/01 01:10:22;;;;;;;1.67;0.60;;;7.00;99.90;;;;;;5028444;28;20174;-58
2023/03/01 01:12:47;;;;;;;3.27;1.13;;;7.10;99.90;;;;;;5028500;28;20232;-58
2023/03/01 01:15:16;;;;;;;3.03;0.50;;;7.00;99.90;;;;;;5027917;28;20174;-58
2023/03/01 01:17:42;;;;;;;2.97;0.50;;;6.90;99.90;;;;;;5027806;28;20244;-56
2023/03/01 01:20:08;;;;;;;2.87;0.53;;;7.00;99.90;;;;;;5028558;28;20585;-58
2023/03/01 01:22:34;;;;;;;1.00;0.23;;;7.00;99.90;;;;;;5028242;28;20174;-58
2023/03/01 01:24:59;;;;;;;0.80;0.20;;;7.00;99.90;;;;;;5028763;28;20213;-57
2023/03/01 01:27:25;;;;;;;0.47;0.30;;;7.00;99.90;;;;;;5028802;28;20178;-57
2023/03/01 01:29:53;;;;;;;0.70;0.40;;;7.00;99.90;;;;;;5028034;28;20336;-58
2023/03/01 01:32:18;;;;;;;0.40;0.30;;;7.00;99.90;;;;;;5029422;28;20300;-58
2023/03/01 01:34:44;;;;;;;0.63;0.30;;;7.00;99.90;;;;;;5032102;28;20260;-57
2023/03/01 01:37:09;;;;;;;1.03;0.30;;;6.90;99.90;;;;;;5032014;28;20182;-55
2023/03/01 01:39:35;;;;;;;0.40;0.40;;;7.00;99.90;;;;;;5031922;28;20542;-57
2023/03/01 01:42:01;;;;;;;1.50;0.50;;;7.10;99.90;;;;;;5032499;28;20265;-57
2023/03/01 01:44:29;;;;;;;1.10;0.40;;;7.10;99.90;;;;;;5030885;28;20258;-57
2023/03/01 01:47:01;;;;;;;2.53;0.70;;;7.00;99.90;;;;;;5036236;28;20185;-57
2023/03/01 01:49:36;;;;;;;2.53;0.20;;;7.00;99.90;;;;;;5030437;28;20182;-58
2023/03/01 01:52:09;;;;;;;0.30;0.30;;;7.00;99.90;;;;;;5031441;28;20188;-57
2023/03/01 01:54:42;;;;;;;1.50;0.40;;;7.00;99.90;;;;;;5031165;28;20596;-57
2023/03/01 01:57:14;;;;;;;1.00;0.50;;;7.00;99.90;;;;;;5032279;28;20500;-57
2023/03/01 01:59:45;;;;;;;0.60;0.40;;;6.90;99.90;;;;;;5030952;28;20641;-57
2023/03/01 02:02:12;;;;;;;1.30;0.50;;;7.00;99.90;;;;;;5032571;28;20645;-57
2023/03/01 02:04:38;;;;;;;1.57;0.40;;;6.80;99.90;;;;;;5030773;28;20198;-57
2023/03/01 02:07:17;;;;;;;1.70;0.30;;;6.90;99.90;;;;;;5030520;28;20173;-57
2023/03/01 02:09:46;;;;;;;1.20;0.30;;;6.90;99.90;;;;;;5031940;28;20162;-57
2023/03/01 02:12:17;;;;;;;1.07;0.43;;;6.90;99.90;;;;;;5031910;28;20181;-57
2023/03/01 02:14:43;;;;;;;2.07;0.40;;;6.90;99.90;;;;;;5031628;28;20212;-59
2023/03/01 02:17:11;;;;;;;2.67;0.30;;;6.90;99.90;;;;;;5031820;28;20186;-57
2023/03/01 02:19:48;;;;;;;0.17;0.17;;;6.90;99.90;;;;;;5031849;28;20277;-57
2023/03/01 02:22:30;;;;;;;1.87;0.40;;;7.00;99.90;;;;;;5031144;28;20208;-57
2023/03/01 02:25:17;;;;;;;1.33;0.33;;;6.90;99.90;;;;;;5031917;28;20354;-57
2023/03/01 02:28:09;;;;;;;4.03;0.60;;;6.70;99.90;;;;;;5031587;28;20174;-58
2023/03/01 02:30:36;;;;;;;0.60;0.50;;;6.60;99.90;;;;;;5002502;28;20289;-58
2023/03/01 02:33:04;;;;;;;1.23;0.40;;;6.70;99.90;;;;;;5030735;28;20252;-59
2023/03/01 02:35:38;;;;;;;1.83;0.50;;;6.60;99.90;;;;;;5030376;28;20452;-58
2023/03/01 02:38:07;;;;;;;1.13;0.40;;;6.60;99.90;;;;;;5023829;28;20737;-58
2023/03/01 02:40:35;;;;;;;3.30;0.73;;;6.30;99.90;;;;;;5031040;28;20196;-58
2023/03/01 02:43:04;;;;;;;0.40;0.40;;;6.80;99.90;;;;;;5030111;28;20245;-58
2023/03/01 02:45:29;;;;;;;0.53;0.40;;;6.50;99.90;;;;;;5030514;28;20285;-58
2023/03/01 02:47:56;;;;;;;2.70;0.50;;;6.50;99.90;;;;;;5030978;28;20186;-58
2023/03/01 02:50:28;;;;;;;1.43;0.53;;;6.50;99.90;;;;;;5030368;28;20182;-58
2023/03/01 02:53:18;;;;;;;3.07;0.50;;;6.40;99.90;;;;;;5015155;28;20232;-58
2023/03/01 02:55:44;;;;;;;4.47;0.60;;;6.50;99.90;;;;;;5012792;28;20222;-58
2023/03/01 02:58:10;;;;;;;1.73;0.50;;;6.60;99.90;;;;;;5030225;28;20197;-58
2023/03/01 03:00:45;;;;;;;0.73;0.60;;;6.40;99.90;;;;;;5016339;28;20174;-58
2023/03/01 03:03:13;;;;;;;3.47;0.40;;;6.50;99.90;;;;;;5019379;28;20252;-57
2023/03/01 03:05:39;;;;;;;1.33;0.70;;;;;;;;;;5004391;28;20630;-57
2023/03/01 03:08:07;;;;;;;1.53;0.77;;;6.50;99.90;;;;;;5010248;28;20182;-57
2023/03/01 03:10:35;;;;;;;1.97;0.63;;;6.40;99.90;;;;;;5027803;28;20185;-57
2023/03/01 03:13:05;;;;;;;1.47;0.70;;;6.50;99.90;;;;;;5029910;28;20170;-58
2023/03/01 03:15:31;;;;;;;3.30;0.90;;;5.70;99.90;;;;;;5030920;28;20210;-57
2023/03/01 03:17:58;;;;;;;6.80;1.10;;;6.70;99.90;;;;;;5013216;28;20239;-57
2023/03/01 03:20:26;;;;;;;2.67;0.90;;;6.50;99.90;;;;;;5029383;28;20182;-57
2023/03/01 03:22:53;;;;;;;2.60;1.10;;;6.50;99.90;;;;;;5029392;28;20170;-57
2023/03/01 03:25:21;;;;;;;3.60;0.90;;;6.80;99.90;;;;;;5029196;28;20268;-57
2023/03/01 03:27:48;;;;;;;1.90;0.93;;;6.50;99.90;;;;;;5028679;28;20166;-57
2023/03/01 03:30:19;;;;;;;2.83;0.97;;;6.50;99.90;;;;;;5029630;28;20261;-57
2023/03/01 03:32:52;;;;;;;1.87;0.90;;;6.30;99.90;;;;;;5028843;28;20177;-57
2023/03/01 03:35:26;;;;;;;1.97;1.00;;;6.50;99.90;;;;;;5037162;28;20207;-57
2023/03/01 03:38:06;;;;;;;2.30;0.90;;;6.40;99.90;;;;;;5017365;28;20192;-58
2023/03/01 03:40:41;;;;;;;2.43;0.80;;;6.50;99.90;;;;;;5013418;28;20174;-58
2023/03/01 03:43:10;;;;;;;4.40;1.13;;;6.50;99.90;;;;;;5018956;28;20221;-58
2023/03/01 03:45:36;;;;;;;1.33;0.80;;;6.50;99.90;;;;;;5041588;28;20217;-57
2023/03/01 03:48:04;;;;;;;1.70;0.83;;;6.50;99.90;;;;;;5015722;28;20338;-56
2023/03/01 03:50:30;;;;;;;2.37;0.70;;;;;;;;;;5026024;28;20186;-56
2023/03/01 03:52:55;;;;;;;1.97;0.70;;;6.50;99.90;;;;;;5035033;28;20648;-57
2023/03/01 03:55:21;;;;;;;4.93;0.70;;;6.50;99.90;;;;;;5033001;28;20220;-57
2023/03/01 03:57:51;;;;;;;1.67;0.67;;;6.30;99.90;;;;;;5012677;28;20209;-57
2023/03/01 04:00:18;;;;;;;1.73;0.60;;;6.50;99.90;;;;;;5031120;28;20239;-57
2023/03/01 04:02:45;;;;;;;6.90;0.57;;;6.50;99.90;;;;;;5029122;28;20717;-57
2023/03/01 04:05:14;;;;;;;3.27;0.73;;;6.30;99.90;;;;;;5029332;28;20221;-57
2023/03/01 04:07:40;;;;;;;1.50;0.50;;;7.30;99.90;;;;;;5029621;28;20186;-58
2023/03/01 04:10:10;;;;;;;2.90;0.70;;;6.50;99.90;;;;;;5029939;28;20182;-57
2023/03/01 04:12:36;;;;;;;3.43;0.50;;;6.50;99.90;;;;;;5029395;28;20186;-57
2023/03/01 04:15:12;;;;;;;5.87;0.90;;;6.50;99.90;;;;;;5011500;28;20195;-57
2023/03/01 04:17:46;;;;;;;1.23;0.50;;;6.50;99.90;;;;;;5029502;28;20252;-57
2023/03/01 04:20:20;;;;;;;2.90;0.70;;;6.50;99.90;;;;;;5029308;28;20178;-55
2023/03/01 04:22:46;;;;;;;0.97;0.50;;;6.60;99.90;;;;;;5028094;28;20183;-57
2023/03/01 04:25:13;;;;;;;2.40;0.63;;;6.30;99.90;;;;;;5028938;28;20592;-57
2023/03/01 04:27:40;;;;;;;1.83;0.57;;;6.50;99.90;;;;;;5028687;28;20188;-57
2023/03/01 04:30:07;;;;;;;1.43;0.40;;;6.40;99.90;;;;;;5032996;28;20683;-58
2023/03/01 04:32:33;;;;;;;4.57;0.70;;;6.50;99.90;;;;;;5018990;28;20186;-57
2023/03/01 04:35:00;;;;;;;1.53;0.50;;;6.50;99.90;;;;;;5027243;28;20189;-57
2023/03/01 04:37:25;;;;;;;2.53;0.60;;;6.50;99.90;;;;;;5010237;28;20174;-57
2023/03/01 04:39:51;;;;;;;1.40;0.50;;;6.40;99.90;;;;;;5024268;28;20359;-57
2023/03/01 04:42:18;;;;;;;2.07;0.60;;;6.50;99.90;;;;;;5028924;28;20177;-57
2023/03/01 04:44:44;;;;;;;1.30;0.60;;;6.50;99.90;;;;;;5028654;28;20217;-57
2023/03/01 04:47:10;;;;;;;2.57;0.60;;;;;;;;;;5029179;28;20173;-57
2023/03/01 04:49:36;;;;;;;3.03;0.83;;;6.40;99.90;;;;;;5028639;28;20174;-57
2023/03/01 04:52:02;;;;;;;2.00;0.87;;;6.40;99.90;;;;;;5028201;28;20189;-57
2023/03/01 04:54:29;;;;;;;0.80;0.50;;;6.40;99.90;;;;;;5028886;28;20743;-57
2023/03/01 04:56:55;;;;;;;2.23;0.60;;;6.40;99.90;;;;;;5029247;28;20251;-57
2023/03/01 04:59:24;;;;;;;0.87;0.70;;;6.40;99.90;;;;;;5029572;28;20170;-57
2023/03/01 05:01:50;;;;;;;1.77;0.77;;;6.40;99.90;;;;;;5028710;28;20190;-57
2023/03/01 05:04:16;;;;;;;3.30;0.60;;;6.40;99.90;;;;;;5029303;28;20639;-57
2023/03/01 05:06:42;;;;;;;1.33;1.00;;;6.60;99.90;;;;;;5030327;28;20312;-57
2023/03/01 05:09:08;;;;;;;1.60;0.70;;;6.40;99.90;;;;;;5032248;28;20684;-57
2023/03/01 05:11:35;;;;;;;1.53;0.90;;;;;;;;;;5033356;28;20181;-57
2023/03/01 05:14:07;;;;;;;2.97;0.90;;;6.40;99.90;;;;;;5032956;28;20193;-57
2023/03/01 05:16:35;;;;;;;2.00;0.90;;;6.40;99.90;;;;;;5031885;28;20180;-57
2023/03/01 05:19:11;;;;;;;1.60;1.07;;;6.40;99.90;;;;;;5031436;28;20220;-57
2023/03/01 05:22:01;;;;;;;1.50;1.03;;;7.60;99.90;;;;;;5032457;28;20293;-58
2023/03/01 05:24:25;;;;;;;1.93;1.20;;;6.30;99.90;;;;;;5025047;28;20198;-58
2023/03/01 05:26:54;;;;;;;8.80;1.50;;;6.20;99.90;;;;;;5031998;28;20213;-58
2023/03/01 05:29:24;;;;;;;2.23;1.43;;;6.30;99.90;;;;;;5031553;28;20174;-58
2023/03/01 05:31:57;;;;;;;3.07;1.43;;;7.60;99.90;;;;;;5032349;28;20253;-58
2023/03/01 05:34:27;;;;;;;2.00;1.30;;;6.10;99.90;;;;;;5032518;28;20178;-58
2023/03/01 05:36:53;;;;;;;4.03;1.70;;;6.30;99.90;;;;;;5032418;28;20251;-58
2023/03/01 05:39:23;;;;;;;3.80;1.90;;;6.30;99.90;;;;;;5031504;28;20182;-58
2023/03/01 05:41:53;;;;;;;3.03;1.60;;;6.30;99.90;;;;;;5032241;28;20182;-58
2023/03/01 05:44:19;;;;;;;5.20;1.50;;;6.40;99.90;;;;;;5031984;28;20177;-58
2023/03/01 05:46:44;;;;;;;3.67;1.50;;;6.30;99.90;;;;;;5032443;28;20208;-58
2023/03/01 05:49:13;;;;;;;3.17;1.90;;;6.20;99.90;;;;;;5031953;28;20170;-58
2023/03/01 05:51:39;;;;;;;5.03;2.10;;;6.30;99.90;;;;;;5031850;28;20234;-58
2023/03/01 05:54:05;;;;;;;5.73;1.90;;;6.20;99.90;;;;;;5031596;28;20170;-58
2023/03/01 05:56:36;;;;;;;4.50;2.27;;;6.30;99.90;;;;;;5013345;28;20619;-58
2023/03/01 05:59:04;;;;;;;2.67;1.90;;;6.20;99.90;;;;;;5032102;28;20769;-58
2023/03/01 06:01:31;;;;;;;5.13;1.90;;;6.20;99.90;;;;;;5030568;28;20185;-58
2023/03/01 06:03:56;;;;;;;3.27;1.83;;;6.20;99.90;;;;;;5019709;28;20209;-58
2023/03/01 06:06:23;;;;;;;4.10;1.90;;;6.20;99.90;;;;;;5031506;28;20619;-58
2023/03/01 06:08:49;;;;;;;3.57;1.90;;;6.40;99.90;;;;;;5032164;28;20174;-58
2023/03/01 06:11:15;;;;;;;3.23;1.80;;;;;;;;;;5013882;28;20517;-58
2023/03/01 06:13:42;;;;;;;2.30;1.80;;;6.20;99.90;;;;;;5031246;28;20618;-58
2023/03/01 06:16:09;;;;;;;2.83;1.87;;;6.10;99.90;;;;;;5014049;28;20174;-58
2023/03/01 06:18:35;;;;;;;2.40;1.73;;;6.00;99.90;;;;;;5026212;28;20174;-59
2023/03/01 06:21:01;;;;;;;4.23;2.10;;;6.00;99.90;;;;;;5035245;28;20242;-58
2023/03/01 06:23:26;;;;;;;2.87;1.73;;;6.10;99.90;;;;;;5036198;28;20178;-58
2023/03/01 06:25:52;;;;;;;2.83;1.90;;;6.30;99.90;;;;;;5032222;28;20217;-60
2023/03/01 06:28:18;;;;;;;4.00;2.40;;;6.00;99.90;;;;;;5030246;28;20698;-58
2023/03/01 06:30:43;;;;;;;4.63;2.27;;;6.10;99.90;;;;;;5023645;28;20216;-58
2023/03/01 06:33:09;;;;;;;3.20;2.53;;;6.00;99.90;;;;;;5034713;28;20212;-58
2023/03/01 06:35:35;;;;;;;5.07;2.90;;;6.10;99.90;;;;;;5031773;28;20246;-58
2023/03/01 06:38:02;;;;;;;5.70;2.93;;;6.10;99.90;;;;;;5031636;28;20185;-58
2023/03/01 06:40:29;;;;;;;9.67;3.57;;;6.10;99.90;;;;;;5030732;28;20675;-57
2023/03/01 06:42:54;;;;;;;5.27;3.27;;;6.00;99.90;;;;;;5030280;28;20245;-57
2023/03/01 06:45:20;;;;;;;7.00;2.83;;;6.10;99.90;;;;;;5031065;28;20680;-57
2023/03/01 06:47:47;;;;;;;5.63;3.03;;;5.80;99.90;;;;;;5030822;28;20253;-58
2023/03/01 06:50:13;;;;;;;6.67;3.57;;;6.00;99.90;;;;;;5027287;28;20212;-58
2023/03/01 06:52:38;;;;;;;5.27;3.43;;;6.10;99.90;;;;;;5030030;28;20534;-58
2023/03/01 06:55:05;;;;;;;4.97;3.40;;;6.00;99.90;;;;;;5030256;28;20211;-58
2023/03/01 06:57:31;;;;;;;8.13;3.27;;;6.00;99.90;;;;;;5030839;28;20182;-57
2023/03/01 06:59:56;;;;;;;4.70;2.50;;;6.00;99.90;;;;;;5030904;28;20239;-58
2023/03/01 07:02:22;;;;;;;6.93;3.13;;;5.80;99.90;;;;;;5031444;28;20651;-58
2023/03/01 07:04:52;;;;;;;6.67;2.63;;;6.10;99.90;;;;;;5029888;28;20205;-59
2023/03/01 07:07:18;;;;;;;5.00;2.93;;;6.10;99.90;;;;;;5030778;28;20204;-57
2023/03/01 07:09:48;;;;;;;8.47;2.77;;;6.10;99.90;;;;;;5031440;28;20189;-57
2023/03/01 07:12:14;;;;;;;5.67;2.73;;;6.10;99.90;;;;;;5030976;28;20174;-58
2023/03/01 07:14:40;;;;;;;5.27;2.87;;;5.70;99.90;;;;;;5023211;28;20194;-59
2023/03/01 07:17:06;;;;;;;5.17;2.73;;;6.10;99.90;;;;;;5030268;28;20182;-58
2023/03/01 07:19:32;;;;;;;7.40;2.97;;;6.60;99.90;;;;;;5029688;28;20256;-59
2023/03/01 07:21:57;;;;;;;5.13;3.00;;;6.10;99.90;;;;;;5030973;28;20264;-58
2023/03/01 07:24:23;;;;;;;6.60;3.23;;;6.20;99.90;;;;;;5011407;28;20210;-58
2023/03/01 07:26:50;;;;;;;4.80;2.60;;;6.20;99.90;;;;;;5030183;28;20214;-56
2023/03/01 07:29:16;;;;;;;6.37;2.70;;;6.40;99.90;;;;;;5029940;28;20170;-57
2023/03/01 07:31:41;;;;;;;7.17;3.30;;;6.20;99.90;;;;;;5030814;28;20169;-57
2023/03/01 07:34:07;;;;;;;7.03;2.93;;;6.30;99.90;;;;;;5030020;28;20551;-57
2023/03/01 07:36:32;;;;;;;6.13;2.37;;;6.30;99.90;;;;;;5029617;28;20607;-56
2023/03/01 07:38:58;;;;;;;7.13;2.27;;;6.40;99.90;;;;;;5030292;28;20174;-57
2023/03/01 07:41:24;;;;;;;3.67;2.10;;;6.40;99.90;;;;;;5030422;28;20170;-57
2023/03/01 07:43:50;;;;;;;3.47;2.10;;;6.40;99.90;;;;;;5030728;28;20186;-58
2023/03/01 07:46:15;;;;;;;3.30;1.63;;;6.20;99.90;;;;;;5030099;28;20202;-57
2023/03/01 07:48:41;;;;;;;8.33;2.33;;;6.40;99.90;;;;;;5028905;28;20220;-58
2023/03/01 07:51:07;;;;;;;3.47;1.70;;;6.50;99.90;;;;;;5011539;28;20311;-57
2023/03/01 07:53:34;;;;;;;3.93;1.67;;;6.50;99.90;;;;;;5030545;28;20691;-57
2023/03/01 07:56:07;;;;;;;4.90;2.20;;;6.60;99.90;;;;;;5030332;28;20262;-58
2023/03/01 07:58:38;;;;;;;4.10;1.60;;;6.60;99.90;;;;;;5029852;28;20260;-57
2023/03/01 08:01:09;;;;;;;4.10;1.50;;;6.70;99.90;;;;;;5029501;28;20177;-56
2023/03/01 08:03:36;;;;;;;2.87;1.60;;;6.80;99.90;;;;;;5029326;28;20208;-56
2023/03/01 08:06:03;;;;;;;4.20;1.60;;;7.10;99.90;;;;;;5030040;28;20260;-57
2023/03/01 08:08:29;;;;;;;3.80;1.23;;;6.90;99.90;;;;;;5029062;28;20604;-57
2023/03/01 08:11:00;;;;;;;4.67;1.43;;;7.10;99.90;;;;;;5029749;28;20224;-57
2023/03/01 08:13:26;;;;;;;3.77;1.17;;;7.00;99.90;;;;;;5024407;28;20190;-57
2023/03/01 08:15:52;;;;;;;4.37;1.50;;;7.00;99.90;;;;;;5011441;28;20177;-57
2023/03/01 08:18:19;;;;;;;3.27;1.37;;;7.10;99.90;;;;;;5028327;28;20174;-56
2023/03/01 08:20:46;;;;;;;5.20;1.70;;;7.10;99.90;;;;;;5029738;28;20166;-57
2023/03/01 08:23:11;;;;;;;3.40;1.50;;;7.20;99.90;;;;;;4995984;28;20269;-55
2023/03/01 08:25:38;;;;;;;3.30;1.53;;;7.30;99.90;;;;;;5029419;28;20674;-56
2023/03/01 08:28:04;;;;;;;4.93;2.00;;;7.20;99.90;;;;;;5029312;28;20170;-56
2023/03/01 08:30:30;;;;;;;6.03;1.80;;;7.40;99.90;;;;;;5029023;28;20223;-56
2023/03/01 08:32:56;;;;;;;4.80;1.47;;;7.50;99.90;;;;;;5027835;28;20633;-56
2023/03/01 08:35:21;;;;;;;1.90;1.20;;;7.30;99.90;;;;;;5028323;28;20190;-57
2023/03/01 08:37:47;;;;;;;5.00;1.30;;;7.30;99.90;;;;;;5029348;28;20186;-57
2023/03/01 08:40:13;;;;;;;2.57;1.00;;;7.50;99.90;;;;;;5029649;28;20197;-56
2023/03/01 08:42:40;;;;;;;2.80;1.00;;;7.60;99.90;;;;;;5031410;28;20253;-57
2023/03/01 08:45:07;;;;;;;1.50;0.97;;;7.60;99.90;;;;;;5032166;28;20212;-56
2023/03/01 08:47:33;;;;;;;3.33;1.03;;;7.50;99.90;;;;;;5031500;28;20184;-57
2023/03/01 08:49:59;;;;;;;2.77;1.00;;;7.70;99.90;;;;;;5033121;28;20181;-57
2023/03/01 08:52:26;;;;;;;4.50;1.47;;;7.70;99.90;;;;;;5033040;28;20169;-56
2023/03/01 08:54:52;;;;;;;2.73;1.70;;;7.80;99.90;;;;;;5032243;28;20222;-56
2023/03/01 08:57:18;;;;;;;6.07;1.43;;;7.90;99.90;;;;;;5031949;28;20253;-56
2023/03/01 08:59:43;;;;;;;2.90;1.50;;;7.70;99.90;;;;;;5032945;28;20227;-56
2023/03/01 09:02:13;;;;;;;3.60;1.70;;;7.90;99.90;;;;;;5032824;28;20166;-57
2023/03/01 09:04:39;;;;;;;2.50;1.73;;;8.00;99.90;;;;;;5027037;28;20664;-58
2023/03/01 09:07:05;;;;;;;4.43;2.00;;;7.90;99.90;;;;;;5045954;28;20190;-57
2023/03/01 09:09:30;;;;;;;3.20;1.70;;;7.90;99.90;;;;;;5026162;28;20174;-57
2023/03/01 09:11:56;;;;;;;4.97;1.97;;;8.30;99.90;;;;;;5013109;28;20276;-57
2023/03/01 09:14:22;;;;;;;5.37;2.20;;;8.60;99.90;;;;;;5030886;28;20174;-57
2023/03/01 09:16:48;;;;;;;3.97;2.33;;;8.60;99.90;;;;;;5025740;28;20183;-57
2023/03/01 09:19:13;;;;;;;7.33;2.43;;;8.90;99.90;;;;;;5011399;28;20693;-57
2023/03/01 09:21:40;;;;;;;4.93;2.07;;;9.10;99.90;;;;;;5012285;28;20388;-58
2023/03/01 09:24:11;;;;;;;6.00;2.17;;;9.10;99.90;;;;;;5013338;28;20179;-57
2023/03/01 09:26:36;;;;;;;3.03;1.77;;;9.30;99.90;;;;;;5011485;28;20299;-57
2023/03/01 09:29:02;;;;;;;4.37;2.30;;;8.90;99.90;;;;;;5012583;28;20654;-57
2023/03/01 09:31:28;;;;;;;4.40;1.90;;;10.10;99.90;;;;;;5012594;28;20249;-57
2023/03/01 09:33:54;;;;;;;3.33;1.93;;;9.60;99.90;;;;;;5013206;28;20202;-57
2023/03/01 09:36:22;;;;;;;4.40;1.90;;;10.60;99.90;;;;;;5013690;28;20633;-60
2023/03/01 09:38:48;;;;;;;4.10;2.10;;;11.70;99.90;;;;;;5012949;28;20166;-57
2023/03/01 09:41:17;;;;;;;4.97;2.23;;;11.30;99.90;;;;;;5011741;28;20231;-56
2023/03/01 09:43:57;;;;;;;3.23;2.00;;;10.90;99.90;;;;;;5011414;28;20170;-57
2023/03/01 09:46:25;;;;;;;7.13;2.47;;;10.30;99.90;;;;;;5021107;28;20209;-57
2023/03/01 09:48:56;;;;;;;3.37;1.80;;;10.10;99.90;;;;;;5031669;28;20204;-57
2023/03/01 09:51:33;;;;;;;3.87;1.77;;;9.70;99.90;;;;;;5032306;28;20177;-59
2023/03/01 09:54:02;;;;;;;4.43;1.60;;;9.10;99.90;;;;;;5030040;28;20158;-58
2023/03/01 09:56:37;;;;;;;4.87;1.83;;;9.00;99.90;;;;;;5031285;28;20218;-57
2023/03/01 09:59:27;;;;;;;2.80;1.80;;;8.70;99.90;;;;;;5025175;28;20225;-57
2023/03/01 10:02:04;;;;;;;4.80;1.90;;;8.60;99.90;;;;;;5030965;28;20169;-56
2023/03/01 10:04:32;;;;;;;2.80;1.97;;;7.90;99.90;;;;;;5032450;28;20523;-56
2023/03/01 10:07:07;;;;;;;5.67;1.83;;;8.00;99.90;;;;;;5031761;28;20209;-57
2023/03/01 10:09:35;;;;;;;4.60;2.00;;;8.60;99.90;;;;;;5031977;28;20170;-57
2023/03/01 10:12:04;;;;;;;3.23;1.70;;;9.60;99.90;;;;;;5031939;28;20262;-57
2023/03/01 10:14:32;;;;;;;2.83;1.53;;;11.20;99.90;;;;;;5031439;28;20177;-57
2023/03/01 10:17:19;;;;;;;2.40;1.53;;;12.10;99.90;;;;;;5030781;28;20181;-57
2023/03/01 10:19:46;;;;;;;2.10;1.30;;;12.30;99.90;;;;;;5031643;28;20508;-60
2023/03/01 10:22:27;;;;;;;1.65;1.27;;;13.10;99.90;;;;;;5031450;28;20188;-58
2023/03/01 10:24:55;;;;;;;1.75;0.90;;;12.90;99.90;;;;;;5031253;28;20683;-57
2023/03/01 10:27:24;;;;;;;1.52;1.10;;;11.90;99.90;;;;;;5031579;28;20669;-57
2023/03/01 10:30:05;;;;;;;1.83;0.90;;;10.80;99.90;;;;;;5031713;28;20617;-57
2023/03/01 10:32:31;;;;;;;1.90;0.93;;;10.30;99.90;;;;;;5013844;28;20181;-58
2023/03/01 10:34:57;;;;;;;1.13;0.80;;;9.80;99.90;;;;;;5031221;28;20170;-57
2023/03/01 10:37:24;;;;;;;1.43;1.00;;;9.30;99.90;;;;;;5030498;28;20169;-57
2023/03/01 10:39:58;;;;;;;1.20;0.77;;;9.10;99.90;;;;;;5030887;28;20216;-57
2023/03/01 10:42:38;;;;;;;3.80;1.10;;;9.10;99.90;;;;;;5030540;28;20640;-57
2023/03/01 10:45:19;;;;;;;2.80;0.80;;;9.00;99.90;;;;;;5030463;28;20233;-57
2023/03/01 10:47:45;;;;;;;1.40;1.20;;;9.00;99.90;;;;;;5011073;28;20166;-57
2023/03/01 10:50:22;;;;;;;1.10;0.97;;;8.80;99.90;;;;;;5011206;28;20645;-58
2023/03/01 10:53:00;;;;;;;1.93;1.20;;;8.70;99.90;;;;;;5012091;28;20228;-57
2023/03/01 10:55:35;;;;;;;4.23;1.07;;;8.50;99.90;;;;;;5011750;28;20226;-58
2023/03/01 10:58:08;;;;;;;1.67;1.17;;;8.40;99.90;;;;;;5011751;28;20166;-57
2023/03/01 11:00:48;;;;;;;1.83;1.30;;;8.50;99.90;;;;;;5011613;28;20201;-57
2023/03/01 11:03:17;;;;;;;3.53;1.30;;;8.50;99.90;;;;;;5011486;28;20206;-57
2023/03/01 11:06:01;;;;;;;2.97;0.87;;;8.70;99.90;;;;;;5011104;28;20546;-57
2023/03/01 11:08:39;;;;;;;4.57;1.57;;;8.90;99.90;;;;;;5011576;28;20242;-57
2023/03/01 11:11:34;;;;;;;3.50;1.30;;;9.10;99.90;;;;;;5011640;28;20174;-57
2023/03/01 11:14:15;;;;;;;3.03;1.10;;;9.50;99.90;;;;;;5011569;28;20170;-57
2023/03/01 11:16:43;;;;;;;5.63;1.97;;;9.60;99.90;;;;;;5011913;28;20174;-57
2023/03/01 11:19:08;;;;;;;4.17;1.63;;;9.70;99.90;;;;;;5011497;28;20175;-58
2023/03/01 11:21:47;;;;;;;3.57;1.80;;;9.70;99.90;;;;;;5011546;28;20273;-57
2023/03/01 11:24:15;;;;;;;5.03;1.60;;;9.90;99.90;;;;;;5011481;28;20187;-57
2023/03/01 11:26:46;;;;;;;7.53;1.60;;;10.10;99.90;;;;;;5011271;28;20210;-58
2023/03/01 11:29:36;;;;;;;2.13;1.33;;;10.00;99.90;;;;;;5011293;28;20210;-58
2023/03/01 11:32:06;;;;;;;2.83;1.67;;;9.90;99.90;;;;;;5011367;28;20328;-58
2023/03/01 11:35:16;;;;;;;3.97;1.73;;;9.80;99.90;;;;;;5011127;28;20159;-57
2023/03/01 11:37:47;;;;;;;5.07;1.63;;;9.60;99.90;;;;;;4982754;28;20241;-57
2023/03/01 11:40:33;;;;;;;5.40;1.70;;;9.60;99.90;;;;;;5011168;28;20178;-57
2023/03/01 11:43:25;;;;;;;6.50;1.80;;;9.80;99.90;;;;;;5011083;28;20197;-57
2023/03/01 11:46:03;;;;;;;6.63;1.70;;;10.10;99.90;;;;;;4985395;28;20213;-57
2023/03/01 11:48:54;;;;;;;3.20;1.60;;;9.90;99.90;;;;;;5030698;28;20181;-57
2023/03/01 11:51:58;;;;;;;3.67;1.60;;;10.00;99.90;;;;;;5030564;28;20185;-57
2023/03/01 11:54:50;;;;;;;2.00;1.57;;;10.30;99.90;;;;;;5030612;28;20657;-57
2023/03/01 11:58:04;;;;;;;4.07;1.30;;;10.10;99.90;;;;;;5030727;28;20634;-57
2023/03/01 12:01:01;;;;;;;2.20;1.30;;;10.70;99.90;;;;;;5013038;28;20178;-56
2023/03/01 12:04:15;;;;;;;2.47;1.13;;;10.50;99.90;;;;;;5030021;28;20209;-57
2023/03/01 12:06:57;;;;;;;4.40;1.20;;;10.40;99.90;;;;;;4976515;28;20748;-57
2023/03/01 12:10:07;;;;;;;3.73;1.20;;;10.50;99.90;;;;;;5030530;28;20688;-57
2023/03/01 12:12:44;;;;;;;7.10;1.50;;;10.40;99.90;;;;;;4976517;28;20702;-57
2023/03/01 12:15:43;;;;;;;5.57;1.47;;;10.50;99.90;;;;;;5012468;28;20178;-57
2023/03/01 12:18:24;;;;;;;2.90;1.50;;;10.80;99.90;;;;;;5029955;28;20198;-57
2023/03/01 12:21:13;;;;;;;6.50;1.90;;;10.40;99.90;;;;;;5030129;28;20185;-58
2023/03/01 12:24:07;;;;;;;3.00;1.70;;;10.20;99.90;;;;;;5030233;28;20844;-57
2023/03/01 12:26:36;;;;;;;6.20;2.03;;;9.90;99.90;;;;;;5030117;28;20687;-57
2023/03/01 12:29:25;;;;;;;6.03;2.07;;;9.70;99.90;;;;;;5030229;28;20166;-57
2023/03/01 12:32:10;;;;;;;3.67;2.20;;;9.40;99.90;;;;;;5030199;28;20166;-57
2023/03/01 12:35:04;;;;;;;4.67;2.47;;;9.20;99.90;;;;;;5030160;28;20193;-57
2023/03/01 12:37:51;;;;;;;3.33;2.30;;;9.00;99.90;;;;;;5012237;28;20243;-57
2023/03/01 12:40:33;;;;;;;4.13;2.50;;;8.80;99.90;;;;;;5029988;28;20176;-57
2023/03/01 12:43:29;;;;;;;7.10;2.90;;;9.60;99.90;;;;;;5030096;28;20192;-58
2023/03/01 12:46:15;;;;;;;5.93;2.80;;;9.80;99.90;;;;;;5023880;28;20209;-57
2023/03/01 12:49:13;;;;;;;8.13;2.87;;;9.80;99.90;;;;;;5010428;28;20179;-57
2023/03/01 12:51:43;;;;;;;6.93;2.80;;;9.70;99.90;;;;;;4977094;28;20182;-57
2023/03/01 12:54:22;;;;;;;9.53;2.60;;;9.70;99.90;;;;;;5010440;28;20237;-57
2023/03/01 12:56:52;;;;;;;4.40;2.60;;;9.70;99.90;;;;;;5016438;28;20302;-57
2023/03/01 12:59:40;;;;;;;5.47;2.97;;;9.50;99.90;;;;;;5029132;28;20521;-57
2023/03/01 13:02:15;;;;;;;3.80;2.63;;;9.40;99.90;;;;;;5027977;28;20273;-58
2023/03/01 13:04:59;;;;;;;4.60;3.30;;;9.30;99.90;;;;;;5029132;28;20169;-57
2023/03/01 13:07:39;;;;;;;4.97;3.00;;;10.70;99.90;;;;;;5028045;28;20387;-57
2023/03/01 13:10:26;;;;;;;7.50;3.10;;;9.10;99.90;;;;;;5027755;28;20176;-57
2023/03/01 13:12:56;;;;;;;6.97;3.57;;;9.10;99.90;;;;;;5029594;28;20165;-58
2023/03/01 13:15:22;;;;;;;7.17;3.30;;;9.10;99.90;;;;;;5027881;28;20174;-57
2023/03/01 13:17:52;;;;;;;5.87;3.37;;;9.10;99.90;;;;;;5028347;28;20258;-57